createdAt,value
2018-12-19T00:02:08.787Z,7.70
2018-12-19T00:04:34.931Z,7.00
2018-12-19T00:07:01.099Z,7.83
2018-12-19T00:09:27.232Z,7.80
2018-12-19T00:11:53.399Z,8.10
2018-12-19T00:14:19.538Z,8.03
2018-12-19T00:16:45.646Z,6.40
2018-12-19T00:19:11.802Z,7.03
2018-12-19T00:21:37.932Z,7.00
2018-12-19T00:24:04.055Z,8.50
2018-12-19T00:26:30.203Z,7.80
2018-12-19T00:28:56.384Z,8.50
2018-12-19T00:31:22.538Z,8.67
2018-12-19T00:33:48.734Z,8.67
2018-12-19T00:36:14.871Z,8.60
2018-12-19T00:38:40.995Z,9.07
2018-12-19T00:41:07.170Z,7.90
2018-12-19T00:43:33.333Z,8.70
2018-12-19T00:45:59.491Z,8.17
2018-12-19T00:48:25.658Z,8.07
2018-12-19T00:50:51.819Z,8.43
2018-12-19T00:53:17.959Z,8.60
2018-12-19T00:55:44.184Z,7.57
2018-12-19T00:58:10.315Z,7.67
2018-12-19T01:00:36.543Z,7.73
2018-12-19T01:03:02.999Z,7.37
2018-12-19T01:05:29.135Z,7.77
2018-12-19T01:07:55.307Z,7.23
2018-12-19T01:10:21.579Z,6.57
2018-12-19T01:12:47.779Z,8.17
2018-12-19T01:15:13.904Z,7.50
2018-12-19T01:17:40.056Z,7.43
2018-12-19T01:20:06.447Z,7.60
2018-12-19T01:22:32.575Z,6.50
2018-12-19T01:24:58.751Z,7.00
2018-12-19T01:27:24.959Z,7.17
2018-12-19T01:29:51.082Z,7.57
2018-12-19T01:32:17.223Z,7.80
2018-12-19T01:34:43.363Z,6.83
2018-12-19T01:37:09.535Z,7.70
2018-12-19T01:39:35.660Z,7.50
2018-12-19T01:42:01.799Z,7.50
2018-12-19T01:44:27.939Z,7.53
2018-12-19T01:46:54.095Z,7.10
2018-12-19T01:49:20.241Z,7.37
2018-12-19T01:51:46.392Z,6.87
2018-12-19T01:54:12.558Z,7.03
2018-12-19T01:56:38.710Z,6.03
2018-12-19T01:59:04.867Z,5.77
2018-12-19T02:01:31.018Z,7.00
2018-12-19T02:03:57.150Z,7.00
2018-12-19T02:06:23.303Z,6.03
2018-12-19T02:08:49.434Z,7.43
2018-12-19T02:11:15.578Z,6.30
2018-12-19T02:13:41.716Z,5.80
2018-12-19T02:16:07.842Z,6.47
2018-12-19T02:18:34.042Z,6.87
2018-12-19T02:21:00.182Z,7.07
2018-12-19T02:23:26.319Z,7.43
2018-12-19T02:25:52.479Z,7.37
2018-12-19T02:28:18.642Z,6.60
2018-12-19T02:30:44.773Z,6.47
2018-12-19T02:33:10.887Z,7.07
2018-12-19T02:35:37.051Z,6.70
2018-12-19T02:38:03.223Z,6.80
2018-12-19T02:40:29.368Z,6.93
2018-12-19T02:42:55.524Z,7.40
2018-12-19T02:45:21.655Z,7.20
2018-12-19T02:47:47.841Z,6.73
2018-12-19T02:50:13.988Z,6.53
2018-12-19T02:52:40.134Z,7.20
2018-12-19T02:55:06.290Z,7.00
2018-12-19T02:57:32.475Z,6.50
2018-12-19T02:59:58.648Z,6.60
2018-12-19T03:02:24.767Z,6.67
2018-12-19T03:04:50.996Z,5.90
2018-12-19T03:07:17.160Z,6.90
2018-12-19T03:09:43.302Z,6.97
2018-12-19T03:12:09.472Z,6.47
2018-12-19T03:14:35.596Z,6.13
2018-12-19T03:17:01.753Z,6.53
2018-12-19T03:19:27.943Z,5.67
2018-12-19T03:21:54.074Z,5.40
2018-12-19T03:24:20.203Z,5.87
2018-12-19T03:26:46.338Z,5.20
2018-12-19T03:29:12.507Z,5.97
2018-12-19T03:31:38.638Z,6.77
2018-12-19T03:34:04.777Z,6.97
2018-12-19T03:36:30.979Z,6.50
2018-12-19T03:38:57.113Z,6.23
2018-12-19T03:41:23.244Z,5.97
2018-12-19T03:43:49.395Z,6.27
2018-12-19T03:46:15.552Z,7.33
2018-12-19T03:48:47.852Z,7.17
2018-12-19T03:51:14.039Z,6.60
2018-12-19T03:53:40.179Z,6.27
2018-12-19T03:56:06.341Z,7.23
2018-12-19T03:58:32.490Z,7.30
2018-12-19T04:00:58.622Z,7.30
2018-12-19T04:03:24.785Z,6.53
2018-12-19T04:05:50.944Z,7.57
2018-12-19T04:08:17.090Z,6.77
2018-12-19T04:10:43.225Z,6.40
2018-12-19T04:13:09.383Z,6.43
2018-12-19T04:15:35.550Z,6.77
2018-12-19T04:18:01.686Z,5.20
2018-12-19T04:20:27.899Z,6.57
2018-12-19T04:22:54.016Z,6.27
2018-12-19T04:25:20.129Z,5.93
2018-12-19T04:27:46.298Z,6.37
2018-12-19T04:30:12.419Z,8.37
2018-12-19T04:32:38.895Z,6.17
2018-12-19T04:35:05.039Z,5.97
2018-12-19T04:37:31.178Z,6.50
2018-12-19T04:39:57.312Z,5.90
2018-12-19T04:42:23.469Z,6.27
2018-12-19T04:44:49.606Z,6.17
2018-12-19T04:47:15.747Z,6.13
2018-12-19T04:49:42.034Z,4.93
2018-12-19T04:52:08.155Z,5.63
2018-12-19T04:54:34.306Z,6.67
2018-12-19T04:57:00.446Z,5.57
2018-12-19T04:59:26.582Z,6.90
2018-12-19T05:01:52.762Z,6.33
2018-12-19T05:04:18.923Z,6.87
2018-12-19T05:06:45.083Z,6.23
2018-12-19T05:09:11.396Z,6.53
2018-12-19T05:11:37.874Z,7.30
2018-12-19T05:14:03.998Z,6.60
2018-12-19T05:16:30.271Z,6.17
2018-12-19T05:18:56.419Z,6.60
2018-12-19T05:21:22.537Z,6.03
2018-12-19T05:23:48.704Z,5.70
2018-12-19T05:26:14.848Z,5.63
2018-12-19T05:28:40.983Z,5.80
2018-12-19T05:31:07.104Z,6.00
2018-12-19T05:33:33.251Z,5.60
2018-12-19T05:35:59.387Z,5.93
2018-12-19T05:38:25.577Z,6.80
2018-12-19T05:40:51.703Z,6.20
2018-12-19T05:43:17.843Z,6.07
2018-12-19T05:45:43.962Z,6.20
2018-12-19T05:48:10.106Z,6.67
2018-12-19T05:50:36.519Z,6.43
2018-12-19T05:53:02.691Z,6.33
2018-12-19T05:55:28.836Z,6.40
2018-12-19T05:57:55.074Z,5.83
2018-12-19T06:00:21.392Z,6.33
2018-12-19T06:02:47.551Z,6.23
2018-12-19T06:05:13.683Z,7.50
2018-12-19T06:07:39.842Z,7.07
2018-12-19T06:10:06.041Z,6.73
2018-12-19T06:12:32.450Z,6.97
2018-12-19T06:14:58.627Z,6.77
2018-12-19T06:17:24.787Z,6.50
2018-12-19T06:19:50.976Z,6.60
2018-12-19T06:22:17.135Z,5.90
2018-12-19T06:24:43.290Z,6.73
2018-12-19T06:27:09.826Z,7.13
2018-12-19T06:29:35.974Z,7.37
2018-12-19T06:32:02.112Z,7.00
2018-12-19T06:34:28.276Z,7.57
2018-12-19T06:36:55.242Z,7.50
2018-12-19T06:39:21.424Z,7.60
2018-12-19T06:41:47.593Z,6.97
2018-12-19T06:44:13.726Z,7.87
2018-12-19T06:46:39.903Z,7.93
2018-12-19T06:49:06.094Z,7.80
2018-12-19T06:51:32.260Z,8.07
2018-12-19T06:53:58.408Z,8.67
2018-12-19T06:56:25.374Z,8.83
2018-12-19T06:58:51.532Z,8.60
2018-12-19T07:01:17.664Z,8.27
2018-12-19T07:03:43.814Z,9.13
2018-12-19T07:06:10.012Z,8.53
2018-12-19T07:08:36.240Z,8.97
2018-12-19T07:11:02.462Z,8.90
2018-12-19T07:13:28.818Z,8.10
2018-12-19T07:15:54.974Z,10.10
2018-12-19T07:18:21.120Z,8.97
2018-12-19T07:20:47.295Z,9.20
2018-12-19T07:23:13.460Z,9.40
2018-12-19T07:25:39.596Z,8.97
2018-12-19T07:28:05.756Z,8.47
2018-12-19T07:30:31.967Z,8.00
2018-12-19T07:32:58.110Z,7.27
2018-12-19T07:35:24.259Z,6.93
2018-12-19T07:37:50.394Z,7.07
2018-12-19T07:40:16.602Z,6.10
2018-12-19T07:42:42.733Z,5.90
2018-12-19T07:45:08.880Z,5.83
2018-12-19T07:47:35.041Z,6.43
2018-12-19T07:50:01.199Z,5.70
2018-12-19T07:52:27.397Z,5.90
2018-12-19T07:54:53.643Z,5.83
2018-12-19T07:57:19.791Z,5.40
2018-12-19T07:59:45.900Z,5.83
2018-12-19T08:02:12.099Z,5.70
2018-12-19T08:04:38.295Z,5.47
2018-12-19T08:07:04.459Z,5.47
2018-12-19T08:09:30.616Z,5.40
2018-12-19T08:11:56.763Z,6.30
2018-12-19T08:14:22.889Z,5.83
2018-12-19T08:16:49.029Z,5.33
2018-12-19T08:19:15.223Z,5.50
2018-12-19T08:21:41.363Z,6.20
2018-12-19T08:24:07.504Z,5.90
2018-12-19T08:26:33.690Z,5.47
2018-12-19T08:28:59.904Z,5.73
2018-12-19T08:31:26.195Z,6.00
2018-12-19T08:33:52.346Z,5.63
2018-12-19T08:36:18.482Z,5.07
2018-12-19T08:38:44.653Z,5.27
2018-12-19T08:41:10.811Z,5.23
2018-12-19T08:43:36.918Z,5.10
2018-12-19T08:46:03.353Z,5.00
2018-12-19T08:48:29.518Z,4.63
2018-12-19T08:50:55.651Z,4.83
2018-12-19T08:53:21.832Z,4.53
2018-12-19T08:55:48.000Z,4.67
2018-12-19T08:58:14.150Z,4.63
2018-12-19T09:00:40.288Z,4.63
2018-12-19T09:03:06.458Z,5.37
2018-12-19T09:05:32.583Z,4.90
2018-12-19T09:07:58.793Z,5.37
2018-12-19T09:10:24.931Z,6.17
2018-12-19T09:12:51.055Z,5.60
2018-12-19T09:15:19.238Z,5.43
2018-12-19T09:17:45.383Z,5.77
2018-12-19T09:20:12.069Z,5.80
2018-12-19T09:22:38.202Z,5.20
2018-12-19T09:25:04.591Z,5.70
2018-12-19T09:27:30.859Z,5.53
2018-12-19T09:29:56.996Z,5.23
2018-12-19T09:32:23.159Z,5.27
2018-12-19T09:34:49.309Z,5.47
2018-12-19T09:37:15.473Z,4.30
2018-12-19T09:39:41.647Z,5.43
2018-12-19T09:42:07.785Z,4.97
2018-12-19T09:44:33.923Z,5.20
2018-12-19T09:47:00.128Z,5.47
2018-12-19T09:49:26.279Z,5.67
2018-12-19T09:51:52.437Z,5.57
2018-12-19T09:54:18.602Z,5.37
2018-12-19T09:56:44.771Z,5.23
2018-12-19T09:59:10.994Z,5.43
2018-12-19T10:01:37.121Z,5.40
2018-12-19T10:04:03.345Z,5.37
2018-12-19T10:06:29.476Z,6.40
2018-12-19T10:08:55.643Z,5.10
2018-12-19T10:11:21.783Z,6.10
2018-12-19T10:13:47.952Z,5.23
2018-12-19T10:16:14.086Z,6.33
2018-12-19T10:18:40.235Z,5.43
2018-12-19T10:21:06.419Z,4.87
2018-12-19T10:23:32.577Z,5.40
2018-12-19T10:26:04.798Z,5.43
2018-12-19T10:28:33.327Z,4.57
2018-12-19T10:30:59.503Z,5.23
2018-12-19T10:33:25.619Z,5.07
2018-12-19T10:35:51.755Z,5.00
2018-12-19T10:38:17.886Z,4.73
2018-12-19T10:40:44.023Z,4.60
2018-12-19T10:43:10.143Z,5.13
2018-12-19T10:45:36.296Z,4.60
2018-12-19T10:48:02.414Z,4.80
2018-12-19T10:50:28.559Z,4.77
2018-12-19T10:52:54.724Z,5.03
2018-12-19T10:55:20.891Z,4.60
2018-12-19T10:57:47.059Z,4.13
2018-12-19T11:00:15.294Z,4.60
2018-12-19T11:02:41.443Z,4.73
2018-12-19T11:05:07.643Z,4.43
2018-12-19T11:07:33.777Z,4.57
2018-12-19T11:09:59.915Z,4.77
2018-12-19T11:12:26.054Z,5.47
2018-12-19T11:14:52.195Z,5.10
2018-12-19T11:17:18.405Z,5.57
2018-12-19T11:19:44.575Z,4.37
2018-12-19T11:22:10.740Z,5.17
2018-12-19T11:24:37.115Z,5.53
2018-12-19T11:27:03.406Z,4.87
2018-12-19T11:29:29.566Z,4.87
2018-12-19T11:31:55.754Z,5.27
2018-12-19T11:34:21.902Z,5.30
2018-12-19T11:36:48.043Z,5.13
2018-12-19T11:39:14.194Z,6.23
2018-12-19T11:41:40.335Z,5.40
2018-12-19T11:44:06.498Z,5.43
2018-12-19T11:46:32.623Z,5.87
2018-12-19T11:48:58.772Z,6.10
2018-12-19T11:51:24.969Z,5.37
2018-12-19T11:53:51.111Z,6.00
2018-12-19T11:56:17.239Z,6.37
2018-12-19T11:58:43.376Z,5.87
2018-12-19T12:01:09.502Z,5.63
2018-12-19T12:03:35.649Z,6.33
2018-12-19T12:06:01.788Z,5.77
2018-12-19T12:08:27.971Z,6.17
2018-12-19T12:10:54.116Z,6.03
2018-12-19T12:13:20.295Z,5.90
2018-12-19T12:15:46.446Z,7.10
2018-12-19T12:18:12.604Z,5.30
2018-12-19T12:20:38.708Z,5.53
2018-12-19T12:23:04.853Z,5.90
2018-12-19T12:25:31.014Z,6.23
2018-12-19T12:27:57.179Z,5.93
2018-12-19T12:30:23.360Z,6.33
2018-12-19T12:32:49.495Z,5.97
2018-12-19T12:35:15.644Z,5.30
2018-12-19T12:37:41.775Z,6.00
2018-12-19T12:40:08.322Z,6.50
2018-12-19T12:42:34.483Z,6.37
2018-12-19T12:45:00.867Z,6.63
2018-12-19T12:47:27.023Z,6.20
2018-12-19T12:49:53.161Z,7.03
2018-12-19T12:52:19.315Z,7.73
2018-12-19T12:54:45.504Z,7.93
2018-12-19T12:57:11.643Z,7.60
2018-12-19T12:59:37.780Z,7.70
2018-12-19T13:02:03.935Z,7.93
2018-12-19T13:04:30.087Z,8.37
2018-12-19T13:06:56.239Z,8.37
2018-12-19T13:09:22.397Z,8.50
2018-12-19T13:11:48.563Z,8.00
2018-12-19T13:14:14.746Z,8.80
2018-12-19T13:16:40.915Z,8.37
2018-12-19T13:19:07.068Z,7.83
2018-12-19T13:21:33.334Z,8.80
2018-12-19T13:23:59.524Z,8.73
2018-12-19T13:26:25.666Z,8.20
2018-12-19T13:28:51.796Z,8.03
2018-12-19T13:31:17.911Z,8.27
2018-12-19T13:33:44.064Z,8.97
2018-12-19T13:36:10.209Z,8.40
2018-12-19T13:38:36.350Z,7.60
2018-12-19T13:41:02.497Z,9.07
2018-12-19T13:43:28.648Z,8.40
2018-12-19T13:45:54.815Z,8.10
2018-12-19T13:48:20.968Z,7.10
2018-12-19T13:50:47.082Z,7.90
2018-12-19T13:53:13.230Z,7.13
2018-12-19T13:55:39.391Z,7.23
2018-12-19T13:58:07.195Z,7.13
2018-12-19T14:00:33.571Z,6.93
2018-12-19T14:02:59.703Z,6.13
2018-12-19T14:05:25.843Z,5.57
2018-12-19T14:07:52.903Z,6.40
2018-12-19T14:10:19.031Z,5.90
2018-12-19T14:12:45.164Z,5.27
2018-12-19T14:15:11.315Z,5.27
2018-12-19T14:17:37.470Z,5.43
2018-12-19T14:20:05.420Z,5.90
2018-12-19T14:22:31.564Z,5.37
2018-12-19T14:24:57.734Z,5.40
2018-12-19T14:27:23.859Z,5.43
2018-12-19T14:29:50.016Z,5.43
2018-12-19T14:32:16.179Z,5.40
2018-12-19T14:34:42.320Z,4.87
2018-12-19T14:37:08.456Z,4.97
2018-12-19T14:39:34.568Z,4.90
2018-12-19T14:42:00.731Z,4.90
2018-12-19T14:44:26.877Z,4.57
2018-12-19T14:46:53.013Z,4.40
2018-12-19T14:49:19.166Z,4.33
2018-12-19T14:51:45.300Z,4.80
2018-12-19T14:54:11.475Z,4.80
2018-12-19T14:56:37.650Z,4.10
2018-12-19T14:59:03.800Z,5.00
2018-12-19T15:01:29.956Z,4.30
2018-12-19T15:03:56.151Z,4.37
2018-12-19T15:06:22.327Z,4.17
2018-12-19T15:08:48.474Z,4.67
2018-12-19T15:11:14.691Z,3.87
2018-12-19T15:13:40.856Z,3.80
2018-12-19T15:16:07.096Z,4.07
2018-12-19T15:18:33.275Z,3.47
2018-12-19T15:20:59.429Z,3.80
2018-12-19T15:23:25.576Z,3.77
2018-12-19T15:25:51.740Z,3.77
2018-12-19T15:28:17.911Z,4.10
2018-12-19T15:30:44.060Z,3.87
2018-12-19T15:33:10.212Z,3.67
2018-12-19T15:35:36.366Z,3.70
2018-12-19T15:38:02.583Z,3.77
2018-12-19T15:40:28.746Z,3.80
2018-12-19T15:42:54.898Z,3.53
2018-12-19T15:45:21.072Z,2.77
2018-12-19T15:47:47.227Z,3.33
2018-12-19T15:50:13.345Z,3.03
2018-12-19T15:52:39.624Z,3.77
2018-12-19T15:55:05.915Z,3.57
2018-12-19T15:57:32.056Z,3.50
2018-12-19T15:59:58.207Z,3.00
2018-12-19T16:02:24.424Z,2.77
2018-12-19T16:04:50.563Z,3.37
2018-12-19T16:07:16.706Z,3.20
2018-12-19T16:09:42.835Z,2.77
2018-12-19T16:12:08.987Z,3.20
2018-12-19T16:14:35.159Z,2.80
2018-12-19T16:17:01.285Z,3.03
2018-12-19T16:19:27.428Z,2.60
2018-12-19T16:21:53.580Z,2.37
2018-12-19T16:24:19.720Z,2.13
2018-12-19T16:26:45.856Z,2.20
2018-12-19T16:29:12.038Z,2.47
2018-12-19T16:31:38.180Z,2.10
2018-12-19T16:34:04.342Z,1.60
2018-12-19T16:36:30.492Z,1.40
2018-12-19T16:38:56.643Z,1.47
2018-12-19T16:41:22.798Z,1.60
2018-12-19T16:43:48.930Z,1.40
2018-12-19T16:46:15.095Z,1.80
2018-12-19T16:48:41.274Z,1.30
2018-12-19T16:51:07.425Z,2.30
2018-12-19T16:53:33.703Z,1.80
2018-12-19T16:55:59.827Z,1.80
2018-12-19T16:58:26.021Z,1.43
2018-12-19T17:00:52.159Z,1.60
2018-12-19T17:03:18.412Z,1.50
2018-12-19T17:05:44.647Z,1.80
2018-12-19T17:08:10.813Z,1.80
2018-12-19T17:10:37.031Z,1.53
2018-12-19T17:13:03.206Z,1.90
2018-12-19T17:15:35.563Z,1.27
2018-12-19T17:18:02.626Z,1.40
2018-12-19T17:20:28.884Z,1.47
2018-12-19T17:22:55.171Z,1.43
2018-12-19T17:25:21.426Z,1.23
2018-12-19T17:27:47.666Z,1.20
2018-12-19T17:30:13.939Z,1.50
2018-12-19T17:32:40.338Z,1.10
2018-12-19T17:35:06.699Z,1.43
2018-12-19T17:37:32.935Z,1.33
2018-12-19T17:39:59.201Z,1.60
2018-12-19T17:42:25.515Z,1.63
2018-12-19T17:44:51.801Z,1.63
2018-12-19T17:47:18.057Z,1.20
2018-12-19T17:49:44.327Z,1.43
2018-12-19T17:52:10.589Z,1.20
2018-12-19T17:54:36.868Z,1.40
2018-12-19T17:57:03.114Z,1.50
2018-12-19T17:59:29.375Z,1.20
2018-12-19T18:01:56.394Z,1.40
2018-12-19T18:04:22.706Z,1.63
2018-12-19T18:06:48.995Z,1.90
2018-12-19T18:09:15.222Z,3.77
2018-12-19T18:11:41.470Z,4.13
2018-12-19T18:14:08.060Z,2.50
2018-12-19T18:16:34.903Z,1.60
2018-12-19T18:19:01.147Z,1.77
2018-12-19T18:21:27.395Z,1.97
2018-12-19T18:23:53.642Z,1.90
2018-12-19T18:26:20.464Z,2.17
2018-12-19T18:28:46.759Z,1.73
2018-12-19T18:31:13.902Z,2.00
2018-12-19T18:33:40.145Z,1.80
2018-12-19T18:36:07.266Z,2.03
2018-12-19T18:38:34.414Z,2.00
2018-12-19T18:41:00.666Z,2.50
2018-12-19T18:43:27.891Z,2.00
2018-12-19T18:45:54.206Z,1.93
2018-12-19T18:48:20.591Z,2.43
2018-12-19T18:50:46.853Z,1.77
2018-12-19T18:53:13.955Z,1.90
2018-12-19T18:55:40.272Z,2.07
2018-12-19T18:58:06.531Z,2.13
2018-12-19T19:00:34.333Z,1.90
2018-12-19T19:03:00.744Z,2.10
2018-12-19T19:05:27.407Z,2.30
2018-12-19T19:07:53.837Z,2.53
2018-12-19T19:10:20.144Z,2.87
2018-12-19T19:12:46.948Z,2.47
2018-12-19T19:15:13.256Z,2.53
2018-12-19T19:17:40.427Z,2.40
2018-12-19T19:20:06.728Z,2.53
2018-12-19T19:22:32.969Z,2.30
2018-12-19T19:24:59.233Z,3.00
2018-12-19T19:27:25.499Z,2.67
2018-12-19T19:29:52.719Z,2.40
2018-12-19T19:32:19.044Z,3.03
2018-12-19T19:34:46.444Z,3.27
2018-12-19T19:37:12.729Z,3.00
2018-12-19T19:39:39.879Z,2.90
2018-12-19T19:42:07.037Z,2.77
2018-12-19T19:44:33.320Z,3.00
2018-12-19T19:46:59.541Z,3.30
2018-12-19T19:49:25.812Z,3.00
2018-12-19T19:51:52.083Z,2.60
2018-12-19T19:54:18.341Z,2.97
2018-12-19T19:56:45.644Z,3.07
2018-12-19T19:59:11.997Z,3.10
2018-12-19T20:01:38.262Z,2.67
2018-12-19T20:04:05.424Z,3.30
2018-12-19T20:06:32.588Z,3.23
2018-12-19T20:09:00.835Z,2.77
2018-12-19T20:11:27.102Z,2.77
2018-12-19T20:13:53.351Z,2.73
2018-12-19T20:16:20.550Z,2.70
2018-12-19T20:18:46.859Z,2.80
2018-12-19T20:21:14.032Z,2.93
2018-12-19T20:23:40.275Z,2.80
2018-12-19T20:26:06.559Z,2.50
2018-12-19T20:28:32.794Z,2.43
2018-12-19T20:30:59.056Z,2.67
2018-12-19T20:33:27.034Z,1.83
2018-12-19T20:35:53.342Z,2.50
2018-12-19T20:38:19.675Z,2.40
2018-12-19T20:40:45.911Z,2.13
2018-12-19T20:43:12.156Z,2.30
2018-12-19T20:45:38.431Z,2.43
2018-12-19T20:48:04.648Z,2.17
2018-12-19T20:50:31.583Z,2.30
2018-12-19T20:52:57.996Z,2.23
2018-12-19T20:55:24.256Z,2.50
2018-12-19T20:57:50.526Z,2.77
2018-12-19T21:00:17.011Z,2.20
2018-12-19T21:02:43.246Z,2.40
2018-12-19T21:05:10.262Z,2.73
2018-12-19T21:07:36.510Z,2.93
2018-12-19T21:10:04.361Z,2.60
2018-12-19T21:12:30.571Z,1.97
2018-12-19T21:14:56.843Z,2.00
2018-12-19T21:20:22.976Z,2.13
2018-12-19T21:22:49.876Z,2.23
2018-12-19T21:25:16.320Z,2.10
2018-12-19T21:27:42.639Z,2.63
2018-12-19T21:30:08.901Z,2.30
2018-12-19T21:32:35.155Z,2.50
2018-12-19T21:35:01.419Z,2.03
2018-12-19T21:37:27.653Z,2.50
2018-12-19T21:39:53.930Z,2.70
2018-12-19T21:42:20.274Z,2.77
2018-12-19T21:44:46.614Z,2.40
2018-12-19T21:47:12.806Z,2.33
2018-12-19T21:49:39.076Z,2.50
2018-12-19T21:52:05.312Z,2.30
2018-12-19T21:54:31.506Z,2.60
2018-12-19T21:56:57.751Z,2.60
2018-12-19T21:59:23.896Z,2.87
2018-12-19T22:01:50.050Z,2.27
2018-12-19T22:04:16.229Z,2.63
2018-12-19T22:06:42.434Z,2.40
2018-12-19T22:09:08.757Z,2.37
2018-12-19T22:11:35.095Z,2.23
2018-12-19T22:14:01.362Z,2.30
2018-12-19T22:16:33.707Z,2.53
2018-12-19T22:18:59.933Z,2.00
2018-12-19T22:21:26.059Z,2.37
2018-12-19T22:23:52.194Z,3.20
2018-12-19T22:26:18.306Z,3.70
2018-12-19T22:28:44.487Z,3.30
2018-12-19T22:31:10.922Z,3.60
2018-12-19T22:33:37.241Z,3.90
2018-12-19T22:36:03.442Z,3.83
2018-12-19T22:38:29.655Z,4.07
2018-12-19T22:40:55.815Z,4.23
2018-12-19T22:43:21.976Z,3.73
2018-12-19T22:45:48.226Z,4.07
2018-12-19T22:48:14.458Z,3.70
2018-12-19T22:50:40.731Z,4.77
2018-12-19T22:53:07.068Z,4.50
2018-12-19T22:55:33.346Z,4.50
2018-12-19T22:57:59.631Z,5.50
2018-12-19T23:00:28.120Z,5.13
2018-12-19T23:03:00.211Z,5.57
2018-12-19T23:05:32.495Z,6.00
2018-12-19T23:07:58.761Z,6.27
2018-12-19T23:10:24.954Z,6.30
2018-12-19T23:12:51.221Z,5.80
2018-12-19T23:15:18.916Z,6.33
2018-12-19T23:17:45.145Z,6.20
2018-12-19T23:20:11.320Z,6.67
2018-12-19T23:22:37.528Z,6.40
2018-12-19T23:25:04.589Z,5.57
2018-12-19T23:27:31.132Z,6.13
2018-12-19T23:29:57.285Z,5.87
2018-12-19T23:32:28.347Z,6.60
2018-12-19T23:34:55.177Z,6.23
2018-12-19T23:37:21.359Z,5.80
2018-12-19T23:39:47.530Z,7.03
2018-12-19T23:42:13.698Z,6.27
2018-12-19T23:44:39.911Z,6.40
2018-12-19T23:47:06.151Z,6.57
2018-12-19T23:49:32.433Z,6.67
2018-12-19T23:51:58.589Z,6.73
2018-12-19T23:54:28.973Z,6.37
2018-12-19T23:56:53.014Z,6.60
2018-12-19T23:59:19.240Z,7.03
